Time;durP1;ratioP1;P1;durP2;ratioP2;P2;SDS_P1;SDS_P2;PMS_P1;PMS_P2;Temp;Humidity;BMP_temperature;BMP_pressure;BME280_temperature;BME280_humidity;BME280_pressure;Samples;Min_cycle;Max_cycle;Signal;HPM_P1;HPM_P2
2021/01/06 00:00:44;;;;;;;38.67;22.58;;;;;;;-0.01;86.26;99595.39;1688828;83;21569;-57
2021/01/06 00:03:18;;;;;;;40.43;22.50;;;;;;;0.01;86.35;99601.86;1682547;85;21580;-57
2021/01/06 00:05:51;;;;;;;40.33;24.02;;;;;;;0.08;86.15;99601.84;1664638;84;21224;-57
2021/01/06 00:08:20;;;;;;;38.83;24.43;;;;;;;0.04;86.36;99597.97;1678113;85;21755;-56
2021/01/06 00:10:51;;;;;;;30.72;18.00;;;;;;;-0.06;86.70;99599.70;1688784;83;21219;-56
2021/01/06 00:13:19;;;;;;;33.73;20.17;;;;;;;0.01;86.43;99593.83;1685373;85;21510;-57
2021/01/06 00:15:47;;;;;;;35.68;22.37;;;;;;;0.07;86.15;99594.36;1670478;83;21675;-57
2021/01/06 00:18:15;;;;;;;36.17;21.20;;;;;;;-0.01;86.36;99594.05;1689015;85;21636;-57
2021/01/06 00:20:44;;;;;;;38.50;21.35;;;;;;;-0.04;86.50;99595.78;1686715;83;21235;-56
2021/01/06 00:23:11;;;;;;;33.85;20.70;;;;;;;0.05;86.42;99602.27;1664126;85;21214;-58
2021/01/06 00:25:42;;;;;;;35.55;23.25;;;;;;;0.14;86.06;99600.53;1656217;85;21210;-57
2021/01/06 00:28:12;;;;;;;35.63;21.97;;;;;;;0.12;86.25;99591.86;1656107;86;21277;-57
2021/01/06 00:30:45;;;;;;;33.60;21.00;;;;;;;0.06;86.39;99596.72;1685597;83;21191;-57
2021/01/06 00:33:16;;;;;;;38.10;22.40;;;;;;;0.18;86.08;99599.59;1687453;85;21168;-58
2021/01/06 00:35:55;;;;;;;35.25;21.15;;;;;;;0.23;85.95;99597.10;1689633;83;21609;-57
2021/01/06 00:38:27;;;;;;;39.33;23.05;;;;;;;0.12;86.16;99593.72;1662488;85;21212;-57
2021/01/06 00:40:55;;;;;;;31.52;19.48;;;;;;;0.05;86.43;99591.56;1658876;85;21211;-57
2021/01/06 00:43:23;;;;;;;33.88;21.70;;;;;;;0.14;86.05;99583.13;1678041;85;21173;-57
2021/01/06 00:45:52;;;;;;;36.68;23.20;;;;;;;0.13;85.91;99583.33;1688737;83;21165;-57
2021/01/06 00:48:21;;;;;;;34.83;22.55;;;;;;;0.02;86.22;99587.45;1686827;85;21141;-57
2021/01/06 00:50:49;;;;;;;32.73;20.40;;;;;;;0.08;86.17;99579.92;1688810;83;21189;-58
2021/01/06 00:53:27;;;;;;;36.42;23.65;;;;;;;0.22;85.79;99578.88;1682425;85;21759;-57
2021/01/06 00:55:56;;;;;;;35.25;20.82;;;;;;;0.13;85.87;99586.83;1668830;84;21689;-57
2021/01/06 00:58:25;;;;;;;36.75;21.95;;;;;;;0.05;86.15;99580.86;1663670;85;21190;-57
2021/01/06 01:00:54;;;;;;;34.70;21.80;;;;;;;0.11;86.06;99583.52;1676989;85;21216;-57
2021/01/06 01:03:24;;;;;;;35.48;22.80;;;;;;;0.19;85.64;99581.14;1688770;85;21207;-56
2021/01/06 01:05:54;;;;;;;35.73;23.10;;;;;;;0.11;85.78;99579.50;1678562;85;21215;-56
2021/01/06 01:08:22;;;;;;;35.43;24.00;;;;;;;0.04;86.02;99572.00;1657008;85;21210;-55
2021/01/06 01:10:52;;;;;;;39.98;28.12;;;;;;;0.11;85.78;99568.00;1656479;85;21686;-56
2021/01/06 01:13:23;;;;;;;34.38;22.10;;;;;;;0.15;85.67;99559.32;1642650;86;21282;-54
2021/01/06 01:15:55;;;;;;;32.20;20.52;;;;;;;0.09;85.85;99558.83;1660936;85;21200;-56
2021/01/06 01:18:25;;;;;;;35.30;20.30;;;;;;;0.08;85.92;99549.14;1681981;85;21171;-56
2021/01/06 01:20:56;;;;;;;31.40;20.05;;;;;;;0.22;85.57;99552.61;1675701;84;21244;-56
2021/01/06 01:23:26;;;;;;;35.13;22.58;;;;;;;0.19;85.62;99543.66;1656043;86;21243;-56
2021/01/06 01:25:54;;;;;;;30.95;19.27;;;;;;;0.14;85.84;99545.66;1656511;85;21166;-56
2021/01/06 01:28:22;;;;;;;31.17;20.15;;;;;;;0.21;85.67;99546.46;1647303;86;21722;-56
2021/01/06 01:30:50;;;;;;;28.50;19.87;;;;;;;0.24;85.31;99545.21;1645395;85;21214;-57
2021/01/06 01:33:23;;;;;;;34.53;19.95;;;;;;;0.17;85.43;99545.23;1656540;85;21161;-56
2021/01/06 01:35:54;;;;;;;32.85;20.00;;;;;;;0.07;85.77;99540.00;1680089;84;21625;-57
2021/01/06 01:38:24;;;;;;;30.85;20.02;;;;;;;0.19;85.47;99541.81;1682530;85;21625;-56
2021/01/06 01:41:06;;;;;;;36.03;22.85;;;;;;;0.20;85.45;99547.48;1659994;85;21217;-56
2021/01/06 01:43:35;;;;;;;31.57;19.40;;;;;;;0.09;85.71;99542.77;1681129;85;21625;-56
2021/01/06 01:46:08;;;;;;;38.17;20.60;;;;;;;0.15;85.63;99543.77;1642474;86;22001;-56
2021/01/06 01:48:46;;;;;;;35.95;21.73;;;;;;;0.19;85.35;99542.33;1656293;86;21157;-55
2021/01/06 01:51:40;;;;;;;38.73;23.07;;;;;;;0.11;85.56;99537.22;1645162;85;21634;-56
2021/01/06 01:54:13;;;;;;;35.28;21.97;;;;;;;0.04;85.86;99543.10;1644809;85;21208;-55
2021/01/06 01:56:55;;;;;;;33.45;19.80;;;;;;;0.17;85.55;99536.37;1681175;84;21177;-57
2021/01/06 01:59:45;;;;;;;39.03;22.58;;;;;;;0.17;85.49;99538.54;1683864;85;21178;-56
2021/01/06 02:02:37;;;;;;;35.43;21.48;;;;;;;0.07;85.77;99535.48;1644968;85;21648;-55
2021/01/06 02:05:12;;;;;;;38.88;24.32;;;;;;;0.15;85.74;99530.39;1654217;85;21201;-56
2021/01/06 02:08:11;;;;;;;36.73;22.25;;;;;;;0.21;85.54;99529.58;1682121;85;21713;-57
2021/01/06 02:10:44;;;;;;;37.53;24.00;;;;;;;0.11;85.81;99516.60;1643959;86;21192;-57
2021/01/06 02:13:23;;;;;;;36.88;23.47;;;;;;;0.19;85.65;99519.06;1637899;87;21611;-57
2021/01/06 02:16:13;;;;;;;39.03;24.20;;;;;;;0.22;85.49;99523.98;1638610;86;21235;-57
2021/01/06 02:18:41;;;;;;;40.17;23.27;;;;;;;0.12;85.79;99519.59;1619692;87;21686;-57
2021/01/06 02:21:15;;;;;;;44.03;27.00;;;;;;;0.15;85.84;99519.17;1630778;86;21698;-56
2021/01/06 02:23:44;;;;;;;44.50;26.60;;;;;;;0.17;85.70;99524.33;1620154;87;21231;-57
2021/01/06 02:26:11;;;;;;;43.83;26.33;;;;;;;0.08;86.06;99530.92;1594063;88;21639;-56
2021/01/06 02:28:39;;;;;;;42.10;25.70;;;;;;;0.02;86.28;99527.23;1646627;86;21158;-56
2021/01/06 02:31:07;;;;;;;46.73;26.90;;;;;;;0.18;85.89;99528.66;1663773;85;21617;-57
2021/01/06 02:33:35;;;;;;;50.67;28.70;;;;;;;0.22;85.80;99533.88;1667487;86;21170;-57
2021/01/06 02:36:05;;;;;;;49.98;27.85;;;;;;;0.17;86.00;99526.49;1667336;85;21211;-57
2021/01/06 02:38:33;;;;;;;48.42;28.65;;;;;;;0.11;86.17;99523.30;1657117;86;21185;-56
2021/01/06 02:41:01;;;;;;;46.50;27.15;;;;;;;0.25;85.81;99528.92;1661734;85;21181;-56
2021/01/06 02:43:29;;;;;;;50.23;30.17;;;;;;;0.27;85.69;99516.67;1663724;86;21141;-56
2021/01/06 02:45:56;;;;;;;49.20;27.27;;;;;;;0.21;85.94;99516.19;1637912;86;21240;-57
2021/01/06 02:48:24;;;;;;;49.58;27.93;;;;;;;0.16;86.12;99515.98;1636512;86;21626;-56
2021/01/06 02:51:00;;;;;;;43.33;25.52;;;;;;;0.24;85.87;99507.73;1658515;85;21486;-57
2021/01/06 02:53:35;;;;;;;51.55;28.60;;;;;;;0.25;85.61;99508.05;1657082;86;21361;-56
2021/01/06 02:56:04;;;;;;;48.52;27.30;;;;;;;0.19;85.83;99508.36;1637201;86;21618;-56
2021/01/06 02:58:33;;;;;;;50.75;28.57;;;;;;;0.14;86.08;99521.56;1639947;86;21159;-57
2021/01/06 03:01:00;;;;;;;49.30;28.60;;;;;;;0.20;85.93;99520.72;1656417;84;21169;-56
2021/01/06 03:03:32;;;;;;;46.20;28.62;;;;;;;0.33;85.58;99524.69;1667441;86;21170;-57
2021/01/06 03:06:20;;;;;;;51.42;29.23;;;;;;;0.28;85.68;99518.33;1665793;85;21170;-56
2021/01/06 03:08:48;;;;;;;50.43;29.75;;;;;;;0.21;85.90;99525.05;1664986;86;21661;-56
2021/01/06 03:11:16;;;;;;;42.83;26.15;;;;;;;0.30;85.67;99533.14;1662096;84;21554;-55
2021/01/06 03:13:44;;;;;;;46.35;27.13;;;;;;;0.37;85.39;99533.94;1650697;85;21190;-57
2021/01/06 03:16:12;;;;;;;51.50;28.80;;;;;;;0.28;85.53;99527.70;1665541;85;21476;-56
2021/01/06 03:18:40;;;;;;;49.45;28.15;;;;;;;0.18;85.79;99525.44;1667124;86;21178;-55
2021/01/06 03:21:08;;;;;;;45.67;28.10;;;;;;;0.26;85.70;99525.73;1640571;85;21192;-56
2021/01/06 03:23:51;;;;;;;48.68;27.70;;;;;;;0.32;85.45;99524.37;1661197;86;21186;-56
2021/01/06 03:26:21;;;;;;;45.92;26.60;;;;;;;0.28;85.56;99523.69;1648640;84;21154;-55
2021/01/06 03:28:49;;;;;;;53.50;29.07;;;;;;;0.18;85.84;99525.44;1599455;88;21193;-56
2021/01/06 03:31:34;;;;;;;46.25;28.27;;;;;;;0.25;85.71;99525.45;1693781;84;21214;-56
2021/01/06 03:34:06;;;;;;;51.63;30.20;;;;;;;0.33;85.46;99524.69;1683960;84;21172;-57
2021/01/06 03:36:42;;;;;;;55.92;31.12;;;;;;;0.25;85.61;99508.84;1685165;84;21140;-56
2021/01/06 03:39:15;;;;;;;47.58;28.35;;;;;;;0.20;85.79;99519.89;1657965;84;21174;-56
2021/01/06 03:41:42;;;;;;;46.20;26.52;;;;;;;0.27;85.57;99524.20;1673740;84;21161;-56
2021/01/06 03:44:11;;;;;;;51.40;30.25;;;;;;;0.34;85.31;99530.86;1690332;84;21304;-56
2021/01/06 03:46:58;;;;;;;52.33;28.67;;;;;;;0.27;85.57;99535.41;1677926;84;21194;-56
2021/01/06 03:49:48;;;;;;;48.95;28.20;;;;;;;0.23;85.73;99546.23;1679141;84;21205;-56
2021/01/06 03:52:27;;;;;;;46.00;26.52;;;;;;;0.34;85.37;99545.08;1679115;84;21190;-56
2021/01/06 03:55:18;;;;;;;44.73;28.23;;;;;;;0.35;85.32;99540.55;1670928;84;21172;-57
2021/01/06 03:57:48;;;;;;;43.90;25.72;;;;;;;0.28;85.56;99544.59;1693338;84;21204;-56
2021/01/06 04:00:24;;;;;;;44.93;26.77;;;;;;;0.38;85.27;99538.78;1654400;83;21579;-56
2021/01/06 04:02:59;;;;;;;42.35;26.07;;;;;;;0.50;85.02;99535.23;1806908;77;23016;-57
2021/01/06 04:05:27;;;;;;;44.80;26.73;;;;;;;0.42;85.19;99532.80;1782328;80;21615;-56
2021/01/06 04:07:56;;;;;;;45.12;27.90;;;;;;;0.38;85.31;99544.14;1730816;81;21565;-56
2021/01/06 04:10:31;;;;;;;43.35;26.27;;;;;;;0.47;85.11;99542.86;1752832;81;21125;-57
2021/01/06 04:13:04;;;;;;;37.88;23.15;;;;;;;0.62;84.71;99531.38;1818399;79;22738;-58
2021/01/06 04:15:32;;;;;;;40.30;24.87;;;;;;;0.50;84.72;99535.74;1783268;78;21129;-57
2021/01/06 04:18:00;;;;;;;39.38;24.77;;;;;;;0.36;84.85;99536.81;1727987;81;21157;-56
2021/01/06 04:20:37;;;;;;;37.78;24.07;;;;;;;0.31;84.87;99532.12;1752672;80;21181;-56
2021/01/06 04:23:14;;;;;;;40.87;24.97;;;;;;;0.38;84.65;99538.27;1752049;81;21118;-56
2021/01/06 04:25:43;;;;;;;;;;;;;;;0.31;84.92;99530.78;1747393;80;21198;-57
2021/01/06 04:28:21;;;;;;;44.95;25.50;;;;;;;0.25;85.20;99536.16;1749444;80;20165;-57
2021/01/06 04:30:52;;;;;;;44.90;26.27;;;;;;;0.20;85.46;99528.75;1754548;80;21181;-57
2021/01/06 04:33:24;;;;;;;47.23;27.37;;;;;;;0.33;85.10;99535.91;1753235;80;21173;-57
2021/01/06 04:35:53;;;;;;;51.02;28.65;;;;;;;0.29;85.29;99535.50;1750308;81;21194;-57
2021/01/06 04:38:25;;;;;;;52.27;29.63;;;;;;;0.16;85.70;99531.53;1758268;80;21600;-56
2021/01/06 04:41:12;;;;;;;50.10;29.45;;;;;;;0.20;85.68;99529.26;1752931;80;21169;-56
2021/01/06 04:43:54;;;;;;;42.95;27.07;;;;;;;0.25;85.53;99530.26;1758442;80;21349;-57
2021/01/06 04:47:00;;;;;;;51.05;29.52;;;;;;;0.17;85.81;99537.20;1753118;80;21171;-57
2021/01/06 04:50:14;;;;;;;53.02;31.05;;;;;;;0.22;85.78;99548.09;1749655;80;21134;-56
2021/01/06 04:53:23;;;;;;;54.83;30.30;;;;;;;0.28;85.63;99544.59;1672200;80;21716;-57
2021/01/06 04:56:28;;;;;;;50.17;28.80;;;;;;;0.18;86.01;99546.85;1752601;80;21684;-57
2021/01/06 04:59:23;;;;;;;51.25;30.08;;;;;;;0.20;85.95;99553.35;1698959;82;21177;-56
2021/01/06 05:02:28;;;;;;;49.83;30.32;;;;;;;0.24;85.79;99551.91;1738909;81;21141;-56
2021/01/06 05:05:17;;;;;;;54.73;30.65;;;;;;;0.13;86.17;99553.88;1759868;80;21153;-56
2021/01/06 05:08:13;;;;;;;50.85;29.10;;;;;;;0.17;86.17;99559.95;1741524;81;21185;-59
2021/01/06 05:10:58;;;;;;;50.73;30.62;;;;;;;0.22;85.96;99553.95;1754004;80;21683;-55
2021/01/06 05:13:43;;;;;;;55.73;31.70;;;;;;;0.13;86.28;99563.25;1750921;80;21151;-55
2021/01/06 05:16:36;;;;;;;50.80;29.05;;;;;;;0.08;86.50;99563.04;1753290;80;21157;-55
2021/01/06 05:19:07;;;;;;;55.92;31.48;;;;;;;0.17;86.28;99564.48;1751174;82;21148;-55
2021/01/06 05:21:35;;;;;;;54.55;31.87;;;;;;;0.13;86.44;99562.73;1751275;81;21181;-55
2021/01/06 05:24:33;;;;;;;55.28;28.92;;;;;;;0.07;86.69;99572.13;1705165;81;21193;-55
2021/01/06 05:27:20;;;;;;;55.30;30.90;;;;;;;0.09;86.63;99572.21;1757836;80;21610;-55
2021/01/06 05:29:54;;;;;;;;;;;;;;;0.18;86.32;99572.28;1729537;83;21566;-55
2021/01/06 05:32:33;;;;;;;55.00;32.20;;;;;;;0.10;86.62;99569.02;1691187;83;20159;-55
2021/01/06 05:35:10;;;;;;;77.90;51.25;;;;;;;0.04;86.84;99573.87;1726433;81;21580;-55
2021/01/06 05:37:38;;;;;;;57.88;35.85;;;;;;;0.20;86.44;99563.55;1698718;83;21621;-55
2021/01/06 05:40:12;;;;;;;50.55;29.00;;;;;;;0.21;86.35;99562.52;1726780;83;21625;-55
2021/01/06 05:42:54;;;;;;;50.95;30.50;;;;;;;0.15;86.56;99556.64;1697138;83;21215;-56
2021/01/06 05:45:28;;;;;;;46.90;27.15;;;;;;;0.23;86.41;99556.94;1725906;81;21586;-56
2021/01/06 05:47:58;;;;;;;50.43;28.40;;;;;;;0.32;86.05;99549.80;1717059;81;21174;-56
2021/01/06 05:50:36;;;;;;;50.63;30.45;;;;;;;0.26;86.21;99551.16;1700114;84;21169;-56
2021/01/06 05:53:36;;;;;;;53.02;28.75;;;;;;;0.22;86.39;99563.32;1699089;82;21188;-56
2021/01/06 05:56:42;;;;;;;47.00;28.83;;;;;;;0.26;86.27;99557.86;1709914;82;21308;-55
2021/01/06 05:59:45;;;;;;;48.70;28.85;;;;;;;0.35;85.96;99559.30;1698882;84;21154;-56
2021/01/06 06:02:43;;;;;;;52.25;28.73;;;;;;;0.24;86.38;99569.30;1710008;83;21162;-56
2021/01/06 06:05:31;;;;;;;45.85;27.25;;;;;;;0.20;86.60;99564.89;1685666;82;21155;-56
2021/01/06 06:08:44;;;;;;;41.65;25.68;;;;;;;0.36;86.13;99563.08;1673277;84;21201;-56
2021/01/06 06:11:53;;;;;;;62.85;38.63;;;;;;;0.36;86.10;99571.63;1702166;82;21211;-57
2021/01/06 06:14:52;;;;;;;119.65;69.03;;;;;;;0.24;86.53;99576.83;1706287;84;21129;-56
2021/01/06 06:17:40;;;;;;;76.75;48.13;;;;;;;0.34;86.25;99575.88;1698078;82;21192;-56
2021/01/06 06:20:47;;;;;;;46.33;28.77;;;;;;;0.36;86.07;99588.52;1716387;83;21679;-56
2021/01/06 06:23:53;;;;;;;51.63;29.60;;;;;;;0.27;86.39;99600.50;1704910;84;21166;-56
2021/01/06 06:26:55;;;;;;;49.23;30.80;;;;;;;0.26;86.44;99585.97;1706319;84;21177;-56
2021/01/06 06:29:36;;;;;;;49.20;29.07;;;;;;;0.35;86.21;99593.59;1668698;84;21149;-57
2021/01/06 06:32:05;;;;;;;55.10;31.17;;;;;;;0.21;86.61;99596.50;1703461;84;21608;-55
2021/01/06 06:34:42;;;;;;;51.50;29.63;;;;;;;0.19;86.77;99605.23;1705108;84;21173;-56
2021/01/06 06:37:17;;;;;;;43.73;27.02;;;;;;;0.32;86.46;99591.84;1706676;83;21147;-55
2021/01/06 06:39:48;;;;;;;55.17;32.15;;;;;;;0.36;86.29;99584.51;1706369;84;21119;-55
2021/01/06 06:42:30;;;;;;;56.70;32.88;;;;;;;0.33;86.48;99586.78;1697832;82;21175;-56
2021/01/06 06:45:32;;;;;;;49.98;29.37;;;;;;;0.30;86.60;99607.28;1706141;84;21170;-56
2021/01/06 06:48:27;;;;;;;53.70;32.90;;;;;;;0.40;86.20;99600.47;1706115;84;21301;-56
2021/01/06 06:51:24;;;;;;;53.48;31.77;;;;;;;0.41;86.18;99603.45;1704237;82;21609;-56
2021/01/06 06:54:19;;;;;;;54.85;29.98;;;;;;;0.33;86.48;99610.36;1711026;83;21145;-56
2021/01/06 06:57:04;;;;;;;47.17;27.87;;;;;;;0.41;86.25;99606.65;1705674;84;21193;-56
2021/01/06 07:00:08;;;;;;;55.28;30.72;;;;;;;0.42;86.11;99610.47;1702724;84;21158;-58
2021/01/06 07:02:49;;;;;;;64.35;34.48;;;;;;;0.37;86.40;99609.44;1684511;82;21176;-57
2021/01/06 07:05:38;;;;;;;55.15;32.20;;;;;;;0.34;86.54;99603.16;1706071;84;21143;-58
2021/01/06 07:08:29;;;;;;;54.42;32.05;;;;;;;0.49;86.06;99595.72;1659795;84;21331;-58
2021/01/06 07:11:10;;;;;;;52.95;30.72;;;;;;;0.49;86.09;99606.44;1706587;83;21219;-58
2021/01/06 07:13:37;;;;;;;53.30;30.95;;;;;;;0.37;86.37;99602.73;1691602;84;21155;-57
2021/01/06 07:18:37;;;;;;;47.30;28.83;;;;;;;0.35;85.89;99561.97;1816458;79;22931;-56
2021/01/06 07:21:28;;;;;;;57.00;32.38;;;;;;;0.44;86.25;99607.56;1759692;80;21190;-57
2021/01/06 07:24:14;;;;;;;47.98;28.50;;;;;;;0.36;86.57;99607.27;1757236;81;21581;-55
2021/01/06 07:26:51;;;;;;;;;;;;;;;0.42;86.33;99610.47;1760465;81;21585;-55
2021/01/06 07:29:20;;;;;;;52.23;29.37;;;;;;;0.47;86.09;99598.59;1775193;80;20266;-55
2021/01/06 07:31:58;;;;;;;54.18;29.15;;;;;;;0.34;86.57;99602.65;1697171;83;21461;-55
2021/01/06 07:34:52;;;;;;;49.38;30.45;;;;;;;0.29;86.83;99615.00;1705024;83;21173;-55
2021/01/06 07:37:31;;;;;;;50.48;28.70;;;;;;;0.40;86.51;99604.48;1698003;84;21242;-58
2021/01/06 07:40:17;;;;;;;56.55;30.95;;;;;;;0.44;86.28;99613.75;1723850;83;21162;-58
2021/01/06 07:42:55;;;;;;;52.40;30.17;;;;;;;0.41;86.54;99605.31;1724162;82;21161;-56
2021/01/06 07:45:31;;;;;;;45.80;27.25;;;;;;;0.50;86.36;99604.87;1724831;82;22083;-55
2021/01/06 07:48:18;;;;;;;52.40;30.88;;;;;;;0.58;86.06;99608.34;1730391;82;21553;-56
2021/01/06 07:51:18;;;;;;;54.25;30.27;;;;;;;0.52;86.22;99614.05;1726511;83;21197;-55
2021/01/06 07:54:05;;;;;;;51.15;28.98;;;;;;;0.47;86.45;99614.66;1728662;83;21177;-55
2021/01/06 07:57:08;;;;;;;47.70;27.87;;;;;;;0.61;86.07;99619.98;1728986;82;21304;-55
2021/01/06 07:59:53;;;;;;;49.38;26.77;;;;;;;0.59;85.96;99624.23;1724674;82;21732;-55
2021/01/06 08:02:37;;;;;;;47.38;27.02;;;;;;;0.48;86.31;99629.70;1719694;83;21600;-55
2021/01/06 08:05:29;;;;;;;49.88;28.75;;;;;;;0.56;86.13;99622.48;1700215;83;21582;-56
2021/01/06 08:08:15;;;;;;;48.60;28.12;;;;;;;0.65;85.83;99623.38;1726282;82;21645;-55
2021/01/06 08:10:45;;;;;;;56.85;29.77;;;;;;;0.61;86.04;99628.84;1726759;82;21177;-55
2021/01/06 08:13:21;;;;;;;45.20;26.00;;;;;;;0.55;86.22;99634.22;1725574;83;21331;-55
2021/01/06 08:15:56;;;;;;;42.60;24.77;;;;;;;0.59;86.05;99627.41;1724015;82;21660;-58
2021/01/06 08:18:35;;;;;;;44.35;27.35;;;;;;;0.67;85.76;99632.05;1727339;81;21210;-56
2021/01/06 08:21:13;;;;;;;41.48;24.87;;;;;;;0.65;85.96;99630.58;1736158;82;21191;-56
2021/01/06 08:24:02;;;;;;;45.92;27.10;;;;;;;0.61;86.15;99627.50;1710662;82;21166;-56
2021/01/06 08:26:30;;;;;;;41.73;27.42;;;;;;;0.72;85.88;99630.05;1755448;80;21206;-56
2021/01/06 08:29:24;;;;;;;44.93;27.95;;;;;;;0.78;85.63;99630.02;1720124;82;21173;-56
2021/01/06 08:32:05;;;;;;;48.83;28.52;;;;;;;0.74;85.87;99632.02;1766057;80;21534;-56
2021/01/06 08:34:39;;;;;;;50.43;28.87;;;;;;;0.68;86.00;99638.20;1726341;80;21118;-56
2021/01/06 08:37:09;;;;;;;51.40;29.57;;;;;;;0.76;85.69;99637.98;1748558;82;21215;-56
2021/01/06 08:39:54;;;;;;;57.58;31.50;;;;;;;0.80;85.46;99636.53;1748667;82;21506;-55
2021/01/06 08:42:26;;;;;;;54.45;30.23;;;;;;;0.73;85.68;99647.78;1739389;80;21169;-56
2021/01/06 08:45:01;;;;;;;51.55;30.23;;;;;;;0.65;85.87;99642.64;1713293;84;21138;-56
2021/01/06 08:47:33;;;;;;;54.45;30.68;;;;;;;0.76;85.57;99648.18;1778507;80;21189;-56
2021/01/06 08:50:34;;;;;;;54.58;30.35;;;;;;;0.78;85.46;99643.42;1755574;80;21554;-55
2021/01/06 08:53:04;;;;;;;56.42;30.20;;;;;;;0.72;85.71;99643.45;1749267;80;21130;-56
2021/01/06 08:55:39;;;;;;;55.35;31.20;;;;;;;0.69;85.80;99638.00;1748959;80;21589;-57
2021/01/06 08:58:10;;;;;;;52.75;31.10;;;;;;;0.82;85.41;99645.16;1748600;82;21169;-56
2021/01/06 09:00:45;;;;;;;55.60;31.62;;;;;;;0.80;85.52;99643.23;1748437;81;21220;-56
2021/01/06 09:03:25;;;;;;;57.27;31.90;;;;;;;0.74;85.74;99633.36;1748679;82;21236;-56
2021/01/06 09:06:14;;;;;;;56.80;30.88;;;;;;;0.80;85.65;99637.35;1748329;81;21316;-57
2021/01/06 09:09:05;;;;;;;60.70;32.93;;;;;;;0.91;85.32;99643.40;1748170;82;21185;-56
2021/01/06 09:11:50;;;;;;;67.17;34.13;;;;;;;0.88;85.48;99629.09;1746558;80;21744;-56
2021/01/06 09:14:28;;;;;;;57.70;30.90;;;;;;;0.82;85.72;99627.23;1758414;80;21149;-57
2021/01/06 09:17:19;;;;;;;59.03;32.20;;;;;;;0.89;85.46;99627.20;1769164;80;21258;-57
2021/01/06 09:19:58;;;;;;;60.83;31.87;;;;;;;0.97;85.24;99629.14;1729477;81;21158;-58
2021/01/06 09:22:25;;;;;;;60.43;31.27;;;;;;;0.91;85.48;99627.32;1660760;84;21182;-57
2021/01/06 09:24:55;;;;;;;65.22;33.80;;;;;;;0.82;85.58;99636.61;1695483;83;21576;-56
2021/01/06 09:27:39;;;;;;;70.15;37.38;;;;;;;0.86;85.40;99636.50;1722704;82;21337;-57
2021/01/06 09:30:22;;;;;;;62.17;33.60;;;;;;;0.94;85.14;99633.59;1742788;81;21112;-58
2021/01/06 09:32:51;;;;;;;65.47;32.83;;;;;;;0.92;85.35;99632.96;1751712;81;21280;-57
2021/01/06 09:35:23;;;;;;;60.70;32.48;;;;;;;0.91;85.65;99636.70;1741706;82;21170;-56
2021/01/06 09:37:56;;;;;;;61.08;31.87;;;;;;;1.05;85.51;99633.95;1743198;82;21127;-57
2021/01/06 09:40:25;;;;;;;79.92;42.05;;;;;;;1.18;85.03;99631.20;1741476;81;21146;-57
2021/01/06 09:42:58;;;;;;;66.92;36.68;;;;;;;1.13;85.14;99623.83;1741060;82;21170;-57
2021/01/06 09:45:27;;;;;;;68.57;37.17;;;;;;;1.09;85.32;99624.46;1741177;82;21181;-57
2021/01/06 09:48:20;;;;;;;62.03;34.53;;;;;;;1.08;85.31;99622.29;1741806;81;21279;-56
2021/01/06 09:50:53;;;;;;;63.05;34.15;;;;;;;1.21;84.90;99622.22;1743496;81;21170;-58
2021/01/06 09:53:23;;;;;;;67.92;34.00;;;;;;;1.23;84.83;99625.53;1721369;82;21162;-57
2021/01/06 09:55:53;;;;;;;67.78;33.10;;;;;;;1.18;85.03;99625.34;1724394;82;21584;-57
2021/01/06 09:58:39;;;;;;;69.58;33.13;;;;;;;1.14;85.00;99619.27;1741679;82;21209;-57
2021/01/06 10:01:42;;;;;;;64.70;34.38;;;;;;;1.22;84.56;99622.53;1745922;82;21604;-57
2021/01/06 10:04:19;;;;;;;69.35;34.98;;;;;;;1.18;84.54;99615.95;1744490;82;21201;-57
2021/01/06 10:07:02;;;;;;;63.00;34.00;;;;;;;1.06;84.83;99626.23;1743106;82;21589;-58
2021/01/06 10:09:46;;;;;;;64.15;35.15;;;;;;;1.08;84.72;99620.13;1738998;82;21207;-57
2021/01/06 10:12:49;;;;;;;92.65;54.15;;;;;;;1.15;84.45;99623.09;1733253;82;21138;-57
2021/01/06 10:15:28;;;;;;;72.72;37.85;;;;;;;1.10;84.71;99624.23;1743949;82;21589;-56
2021/01/06 10:18:18;;;;;;;68.95;36.73;;;;;;;1.03;85.03;99621.30;1721759;82;21203;-56
2021/01/06 10:21:04;;;;;;;62.30;32.78;;;;;;;1.13;84.88;99625.17;1739267;82;21187;-58
2021/01/06 10:23:57;;;;;;;65.30;32.58;;;;;;;1.15;84.63;99627.63;1724864;82;21490;-56
2021/01/06 10:26:36;;;;;;;63.42;30.60;;;;;;;1.04;84.89;99630.96;1714028;82;21692;-56
2021/01/06 10:29:21;;;;;;;69.70;36.90;;;;;;;0.97;85.15;99633.67;1734655;82;21587;-56
2021/01/06 10:32:03;;;;;;;121.42;57.50;;;;;;;1.03;85.03;99635.50;1727891;82;21189;-56
2021/01/06 10:34:47;;;;;;;97.85;47.73;;;;;;;1.15;84.79;99632.47;1727292;82;21155;-57
2021/01/06 10:37:29;;;;;;;68.50;34.55;;;;;;;1.10;84.90;99632.27;1734149;82;21200;-57
2021/01/06 10:40:15;;;;;;;127.20;57.93;;;;;;;1.06;85.04;99631.59;1720485;82;21566;-56
2021/01/06 10:42:43;;;;;;;86.95;43.17;;;;;;;1.12;84.87;99632.90;1705895;82;21166;-57
2021/01/06 10:45:27;;;;;;;69.50;36.08;;;;;;;1.21;84.65;99628.09;1728594;82;21173;-55
2021/01/06 10:47:55;;;;;;;69.17;37.03;;;;;;;1.18;84.84;99636.57;1729263;82;21136;-57
2021/01/06 10:50:30;;;;;;;68.22;36.60;;;;;;;1.13;85.04;99634.55;1718397;82;21150;-57
2021/01/06 10:53:24;;;;;;;64.62;37.20;;;;;;;1.20;84.89;99638.03;1720910;82;21178;-54
2021/01/06 10:56:06;;;;;;;51.37;28.38;;;;;;;1.30;84.56;99641.58;1731142;82;21652;-58
2021/01/06 10:59:06;;;;;;;50.45;27.98;;;;;;;1.25;84.82;99645.41;1725971;82;21142;-57
2021/01/06 11:02:02;;;;;;;41.70;24.37;;;;;;;1.17;85.00;99647.81;1738213;82;21649;-57
2021/01/06 11:04:41;;;;;;;57.23;30.65;;;;;;;1.28;84.79;99649.83;1720712;82;21520;-57
2021/01/06 11:07:48;;;;;;;68.78;34.85;;;;;;;1.33;84.56;99642.48;1734514;81;21160;-57
2021/01/06 11:10:49;;;;;;;61.18;32.63;;;;;;;1.27;84.75;99640.16;1723705;82;21132;-57
2021/01/06 11:13:36;;;;;;;56.02;33.02;;;;;;;1.20;84.89;99643.91;1726073;82;21124;-57
2021/01/06 11:16:17;;;;;;;54.98;30.35;;;;;;;1.34;84.65;99631.56;1728307;82;21177;-58
2021/01/06 11:18:47;;;;;;;49.27;28.23;;;;;;;1.34;84.65;99631.56;1728436;82;21708;-57
2021/01/06 11:21:22;;;;;;;61.65;31.73;;;;;;;1.28;84.79;99622.18;1738250;82;21205;-56
2021/01/06 11:23:59;;;;;;;47.15;26.57;;;;;;;1.24;84.83;99619.65;1722032;82;21638;-58
2021/01/06 11:26:45;;;;;;;55.03;30.48;;;;;;;1.37;84.52;99615.55;1699982;84;21169;-57
2021/01/06 11:29:22;;;;;;;55.75;31.10;;;;;;;1.41;84.32;99620.27;1734837;82;21165;-57
2021/01/06 11:32:04;;;;;;;53.48;29.48;;;;;;;1.35;84.60;99610.90;1717138;83;21190;-57
2021/01/06 11:34:36;;;;;;;53.55;28.57;;;;;;;1.32;84.79;99607.31;1726271;82;21149;-57
2021/01/06 11:37:28;;;;;;;72.30;41.23;;;;;;;1.43;84.56;99612.82;1736507;82;21769;-57
2021/01/06 11:39:56;;;;;;;52.55;29.90;;;;;;;1.51;84.34;99617.11;1742065;82;21129;-58
2021/01/06 11:42:46;;;;;;;74.45;38.85;;;;;;;1.45;84.46;99622.01;1737598;82;21186;-57
2021/01/06 11:45:15;;;;;;;64.97;39.10;;;;;;;1.38;84.60;99623.91;1735714;82;21651;-57
2021/01/06 11:48:05;;;;;;;64.07;36.90;;;;;;;1.47;84.34;99636.02;1742368;82;21143;-57
2021/01/06 11:50:45;;;;;;;54.08;32.42;;;;;;;1.57;84.17;99630.17;1692675;82;21179;-57
2021/01/06 11:53:32;;;;;;;54.55;29.90;;;;;;;1.52;84.33;99620.63;1725003;82;21176;-56
2021/01/06 11:56:16;;;;;;;48.13;25.83;;;;;;;1.50;84.46;99611.44;1692267;84;21616;-56
2021/01/06 11:59:08;;;;;;;52.43;30.10;;;;;;;1.61;84.08;99595.16;1653663;84;21572;-55
2021/01/06 12:01:57;;;;;;;54.45;30.92;;;;;;;1.65;83.83;99609.80;1625542;86;21330;-57
2021/01/06 12:04:42;;;;;;;72.72;42.30;;;;;;;1.56;84.13;99621.84;1605007;87;21356;-56
2021/01/06 12:07:30;;;;;;;61.63;36.45;;;;;;;1.48;84.28;99630.45;1646654;85;21644;-57
2021/01/06 12:10:25;;;;;;;;;;;;;;;1.54;84.07;99622.04;1698528;84;21753;-57
2021/01/06 12:13:34;;;;;;;61.37;33.67;;;;;;;1.59;83.88;99628.94;1692098;84;20165;-57
2021/01/06 12:16:16;;;;;;;66.02;34.30;;;;;;;1.46;84.44;99630.33;1676161;85;21469;-57
2021/01/06 12:19:21;;;;;;;62.50;34.85;;;;;;;1.42;84.60;99639.33;1676758;85;21104;-57
2021/01/06 12:21:56;;;;;;;52.60;29.20;;;;;;;1.50;84.36;99644.45;1676282;84;21644;-57
2021/01/06 12:24:34;;;;;;;53.15;29.35;;;;;;;1.60;84.04;99648.52;1666366;85;21194;-56
2021/01/06 12:27:27;;;;;;;46.95;25.27;;;;;;;1.55;84.30;99644.33;1676786;84;21191;-57